sensor_id;sensor_type;location;lat;lon;timestamp;pressure;altitude;pressure_sealevel;temperature;humidity
21240;BME280;10778;48.962;9.018;2023-03-03T00:01:06;99334.84;;;0.36;93.16
21240;BME280;10778;48.962;9.018;2023-03-03T00:03:32;99331.94;;;0.44;92.73
21240;BME280;10778;48.962;9.018;2023-03-03T00:05:58;99336.06;;;0.48;92.67
21240;BME280;10778;48.962;9.018;2023-03-03T00:08:25;99331.38;;;0.56;92.09
21240;BME280;10778;48.962;9.018;2023-03-03T00:10:51;99336.81;;;0.50;92.61
21240;BME280;10778;48.962;9.018;2023-03-03T00:13:20;99340.03;;;0.55;91.77
21240;BME280;10778;48.962;9.018;2023-03-03T00:15:47;99342.09;;;0.28;93.35
21240;BME280;10778;48.962;9.018;2023-03-03T00:18:21;99338.78;;;0.24;94.18
21240;BME280;10778;48.962;9.018;2023-03-03T00:20:53;99340.41;;;0.27;94.11
21240;BME280;10778;48.962;9.018;2023-03-03T00:23:28;99337.06;;;0.25;93.69
21240;BME280;10778;48.962;9.018;2023-03-03T00:25:56;99334.94;;;0.14;94.34
21240;BME280;10778;48.962;9.018;2023-03-03T00:28:31;99340.47;;;0.25;94.66
21240;BME280;10778;48.962;9.018;2023-03-03T00:30:59;99333.63;;;0.24;93.38
21240;BME280;10778;48.962;9.018;2023-03-03T00:33:28;99339.94;;;0.19;93.42
21240;BME280;10778;48.962;9.018;2023-03-03T00:38:42;99342.91;;;-0.11;95.22
21240;BME280;10778;48.962;9.018;2023-03-03T00:41:25;99335.72;;;-0.25;95.54
21240;BME280;10778;48.962;9.018;2023-03-03T00:43:53;99350.66;;;-0.32;96.84
21240;BME280;10778;48.962;9.018;2023-03-03T00:46:21;99348.28;;;-0.38;96.90
21240;BME280;10778;48.962;9.018;2023-03-03T00:48:49;99345.25;;;-0.48;97.13
21240;BME280;10778;48.962;9.018;2023-03-03T00:53:41;99341.59;;;-0.65;97.82
21240;BME280;10778;48.962;9.018;2023-03-03T00:56:07;99345.16;;;-0.67;97.21
21240;BME280;10778;48.962;9.018;2023-03-03T00:58:33;99339.13;;;-0.68;98.31
21240;BME280;10778;48.962;9.018;2023-03-03T01:00:59;99344.28;;;-0.68;98.78
21240;BME280;10778;48.962;9.018;2023-03-03T01:03:36;99343.53;;;-0.70;98.44
21240;BME280;10778;48.962;9.018;2023-03-03T01:06:02;99338.66;;;-0.78;98.92
21240;BME280;10778;48.962;9.018;2023-03-03T01:08:28;99339.72;;;-0.83;99.31
21240;BME280;10778;48.962;9.018;2023-03-03T01:11:19;99333.78;;;-0.86;98.93
21240;BME280;10778;48.962;9.018;2023-03-03T01:13:43;99344.25;;;-0.89;98.89
21240;BME280;10778;48.962;9.018;2023-03-03T01:16:11;99342.91;;;-0.99;99.07
21240;BME280;10778;48.962;9.018;2023-03-03T01:18:37;99338.88;;;-1.06;98.66
21240;BME280;10778;48.962;9.018;2023-03-03T01:21:05;99342.69;;;-1.17;99.17
21240;BME280;10778;48.962;9.018;2023-03-03T01:23:31;99343.59;;;-1.18;99.70
21240;BME280;10778;48.962;9.018;2023-03-03T01:25:57;99343.75;;;-1.22;100.00
21240;BME280;10778;48.962;9.018;2023-03-03T01:28:23;99347.59;;;-1.33;100.00
21240;BME280;10778;48.962;9.018;2023-03-03T01:30:51;99349.78;;;-1.22;100.00
21240;BME280;10778;48.962;9.018;2023-03-03T01:33:17;99351.78;;;-1.30;100.00
21240;BME280;10778;48.962;9.018;2023-03-03T01:35:45;99352.59;;;-1.28;100.00
21240;BME280;10778;48.962;9.018;2023-03-03T01:38:13;99339.56;;;-1.25;100.00
21240;BME280;10778;48.962;9.018;2023-03-03T01:40:39;99341.28;;;-1.25;100.00
21240;BME280;10778;48.962;9.018;2023-03-03T01:43:07;99336.13;;;-1.25;100.00
21240;BME280;10778;48.962;9.018;2023-03-03T01:51:04;99335.19;;;-1.23;100.00
21240;BME280;10778;48.962;9.018;2023-03-03T01:53:41;99332.44;;;-1.18;100.00
21240;BME280;10778;48.962;9.018;2023-03-03T01:56:08;99325.59;;;-1.19;100.00
21240;BME280;10778;48.962;9.018;2023-03-03T01:58:40;99320.47;;;-1.21;100.00
21240;BME280;10778;48.962;9.018;2023-03-03T02:01:10;99323.22;;;-1.25;100.00
21240;BME280;10778;48.962;9.018;2023-03-03T02:03:39;99318.84;;;-1.23;100.00
21240;BME280;10778;48.962;9.018;2023-03-03T02:06:08;99319.91;;;-1.29;100.00
21240;BME280;10778;48.962;9.018;2023-03-03T02:09:10;99316.47;;;-1.28;100.00
21240;BME280;10778;48.962;9.018;2023-03-03T02:11:39;99321.78;;;-1.33;100.00
21240;BME280;10778;48.962;9.018;2023-03-03T02:14:09;99319.25;;;-1.34;100.00
21240;BME280;10778;48.962;9.018;2023-03-03T02:16:40;99327.00;;;-1.34;100.00
21240;BME280;10778;48.962;9.018;2023-03-03T02:19:16;99323.78;;;-1.41;100.00
21240;BME280;10778;48.962;9.018;2023-03-03T02:21:47;99318.09;;;-1.49;99.54
21240;BME280;10778;48.962;9.018;2023-03-03T02:24:18;99320.16;;;-1.59;100.00
21240;BME280;10778;48.962;9.018;2023-03-03T02:26:46;99323.38;;;-1.52;100.00
21240;BME280;10778;48.962;9.018;2023-03-03T02:29:13;99323.66;;;-1.60;100.00
21240;BME280;10778;48.962;9.018;2023-03-03T02:31:40;99330.81;;;-1.68;100.00
21240;BME280;10778;48.962;9.018;2023-03-03T02:34:08;99324.03;;;-1.71;100.00
21240;BME280;10778;48.962;9.018;2023-03-03T02:36:36;99329.47;;;-1.79;100.00
21240;BME280;10778;48.962;9.018;2023-03-03T02:42:13;99332.13;;;-1.82;100.00
21240;BME280;10778;48.962;9.018;2023-03-03T02:44:48;99331.06;;;-1.76;100.00
21240;BME280;10778;48.962;9.018;2023-03-03T02:47:14;99340.09;;;-1.88;100.00
21240;BME280;10778;48.962;9.018;2023-03-03T02:49:40;99329.88;;;-1.91;100.00
21240;BME280;10778;48.962;9.018;2023-03-03T02:52:09;99339.31;;;-1.90;100.00
21240;BME280;10778;48.962;9.018;2023-03-03T02:54:37;99335.81;;;-1.89;100.00
21240;BME280;10778;48.962;9.018;2023-03-03T02:57:04;99339.19;;;-1.87;100.00
21240;BME280;10778;48.962;9.018;2023-03-03T02:59:30;99329.34;;;-2.01;100.00
21240;BME280;10778;48.962;9.018;2023-03-03T03:02:03;99330.16;;;-1.99;100.00
21240;BME280;10778;48.962;9.018;2023-03-03T03:04:29;99329.13;;;-1.95;100.00
21240;BME280;10778;48.962;9.018;2023-03-03T03:06:55;99330.19;;;-2.01;100.00
21240;BME280;10778;48.962;9.018;2023-03-03T03:09:23;99335.34;;;-2.01;100.00
21240;BME280;10778;48.962;9.018;2023-03-03T03:11:52;99336.47;;;-2.08;100.00
21240;BME280;10778;48.962;9.018;2023-03-03T03:14:21;99332.97;;;-2.07;100.00
21240;BME280;10778;48.962;9.018;2023-03-03T03:16:49;99342.53;;;-2.10;100.00
21240;BME280;10778;48.962;9.018;2023-03-03T03:19:15;99346.13;;;-2.15;100.00
21240;BME280;10778;48.962;9.018;2023-03-03T03:21:42;99343.81;;;-2.22;100.00
21240;BME280;10778;48.962;9.018;2023-03-03T03:24:09;99337.75;;;-2.21;100.00
21240;BME280;10778;48.962;9.018;2023-03-03T03:26:40;99342.53;;;-2.36;100.00
21240;BME280;10778;48.962;9.018;2023-03-03T03:29:06;99344.84;;;-2.28;100.00
21240;BME280;10778;48.962;9.018;2023-03-03T03:31:33;99346.63;;;-2.30;100.00
21240;BME280;10778;48.962;9.018;2023-03-03T03:34:01;99334.00;;;-2.38;100.00
21240;BME280;10778;48.962;9.018;2023-03-03T03:36:28;99342.53;;;-2.36;100.00
21240;BME280;10778;48.962;9.018;2023-03-03T03:38:55;99346.84;;;-2.36;100.00
21240;BME280;10778;48.962;9.018;2023-03-03T03:41:21;99343.38;;;-2.35;100.00
21240;BME280;10778;48.962;9.018;2023-03-03T03:43:47;99340.03;;;-2.39;100.00
21240;BME280;10778;48.962;9.018;2023-03-03T03:46:14;99346.88;;;-2.38;100.00
21240;BME280;10778;48.962;9.018;2023-03-03T03:48:40;99349.59;;;-2.43;100.00
21240;BME280;10778;48.962;9.018;2023-03-03T03:51:11;99348.91;;;-2.48;100.00
21240;BME280;10778;48.962;9.018;2023-03-03T03:53:38;99354.28;;;-2.54;100.00
21240;BME280;10778;48.962;9.018;2023-03-03T03:56:04;99346.25;;;-2.45;100.00
21240;BME280;10778;48.962;9.018;2023-03-03T03:58:31;99344.53;;;-2.44;100.00
21240;BME280;10778;48.962;9.018;2023-03-03T04:01:05;99346.06;;;-2.38;100.00
21240;BME280;10778;48.962;9.018;2023-03-03T04:03:34;99340.72;;;-2.34;100.00
21240;BME280;10778;48.962;9.018;2023-03-03T04:06:04;99338.66;;;-2.22;100.00
21240;BME280;10778;48.962;9.018;2023-03-03T04:08:30;99340.13;;;-2.15;100.00
21240;BME280;10778;48.962;9.018;2023-03-03T04:10:56;99346.03;;;-2.11;100.00
21240;BME280;10778;48.962;9.018;2023-03-03T04:13:23;99346.91;;;-2.12;100.00
21240;BME280;10778;48.962;9.018;2023-03-03T04:15:49;99344.38;;;-2.14;100.00
21240;BME280;10778;48.962;9.018;2023-03-03T04:18:16;99345.97;;;-2.10;100.00
21240;BME280;10778;48.962;9.018;2023-03-03T04:20:43;99357.91;;;-2.07;100.00
21240;BME280;10778;48.962;9.018;2023-03-03T04:23:09;99356.34;;;-2.11;100.00
21240;BME280;10778;48.962;9.018;2023-03-03T04:25:36;99358.75;;;-2.07;100.00
21240;BME280;10778;48.962;9.018;2023-03-03T04:28:10;99357.75;;;-2.03;100.00
21240;BME280;10778;48.962;9.018;2023-03-03T04:30:36;99361.72;;;-1.92;100.00
21240;BME280;10778;48.962;9.018;2023-03-03T04:33:02;99356.72;;;-1.97;100.00
21240;BME280;10778;48.962;9.018;2023-03-03T04:35:28;99361.34;;;-2.07;100.00
21240;BME280;10778;48.962;9.018;2023-03-03T04:37:55;99371.41;;;-1.99;100.00
21240;BME280;10778;48.962;9.018;2023-03-03T04:40:22;99362.72;;;-1.96;100.00
21240;BME280;10778;48.962;9.018;2023-03-03T04:42:50;99362.78;;;-1.98;100.00
21240;BME280;10778;48.962;9.018;2023-03-03T04:45:17;99352.22;;;-1.92;100.00
21240;BME280;10778;48.962;9.018;2023-03-03T04:47:44;99362.88;;;-1.76;100.00
21240;BME280;10778;48.962;9.018;2023-03-03T04:50:11;99362.63;;;-1.68;100.00
21240;BME280;10778;48.962;9.018;2023-03-03T04:52:37;99366.88;;;-1.67;100.00
21240;BME280;10778;48.962;9.018;2023-03-03T04:55:04;99367.59;;;-1.63;100.00
21240;BME280;10778;48.962;9.018;2023-03-03T04:57:31;99362.81;;;-1.74;100.00
21240;BME280;10778;48.962;9.018;2023-03-03T04:59:57;99372.97;;;-1.69;100.00
21240;BME280;10778;48.962;9.018;2023-03-03T05:02:23;99366.81;;;-1.65;100.00
21240;BME280;10778;48.962;9.018;2023-03-03T05:04:50;99363.28;;;-1.63;100.00
21240;BME280;10778;48.962;9.018;2023-03-03T05:07:16;99366.59;;;-1.59;100.00
21240;BME280;10778;48.962;9.018;2023-03-03T05:09:43;99366.53;;;-1.58;100.00
21240;BME280;10778;48.962;9.018;2023-03-03T05:12:09;99365.59;;;-1.55;100.00
21240;BME280;10778;48.962;9.018;2023-03-03T05:14:35;99361.84;;;-1.46;100.00
21240;BME280;10778;48.962;9.018;2023-03-03T05:17:02;99367.16;;;-1.51;100.00
21240;BME280;10778;48.962;9.018;2023-03-03T05:19:29;99368.66;;;-1.44;100.00
21240;BME280;10778;48.962;9.018;2023-03-03T05:21:55;99366.72;;;-1.38;100.00
21240;BME280;10778;48.962;9.018;2023-03-03T05:24:22;99372.66;;;-1.36;100.00
21240;BME280;10778;48.962;9.018;2023-03-03T05:26:48;99370.66;;;-1.28;100.00
21240;BME280;10778;48.962;9.018;2023-03-03T05:29:14;99374.03;;;-1.26;100.00
21240;BME280;10778;48.962;9.018;2023-03-03T05:31:40;99375.47;;;-1.19;100.00
21240;BME280;10778;48.962;9.018;2023-03-03T05:34:06;99382.16;;;-1.13;100.00
21240;BME280;10778;48.962;9.018;2023-03-03T05:36:32;99394.13;;;-1.10;100.00
21240;BME280;10778;48.962;9.018;2023-03-03T05:38:58;99393.88;;;-1.04;100.00
21240;BME280;10778;48.962;9.018;2023-03-03T05:41:24;99396.31;;;-0.99;100.00
21240;BME280;10778;48.962;9.018;2023-03-03T05:43:50;99404.22;;;-1.04;100.00
21240;BME280;10778;48.962;9.018;2023-03-03T05:46:17;99397.66;;;-1.13;100.00
21240;BME280;10778;48.962;9.018;2023-03-03T05:48:43;99392.59;;;-1.16;100.00
21240;BME280;10778;48.962;9.018;2023-03-03T05:51:10;99396.59;;;-1.07;100.00
21240;BME280;10778;48.962;9.018;2023-03-03T05:53:36;99398.28;;;-1.06;100.00
21240;BME280;10778;48.962;9.018;2023-03-03T05:56:02;99401.75;;;-1.07;100.00
21240;BME280;10778;48.962;9.018;2023-03-03T05:58:28;99409.25;;;-1.01;100.00
21240;BME280;10778;48.962;9.018;2023-03-03T06:00:55;99400.28;;;-0.91;100.00
21240;BME280;10778;48.962;9.018;2023-03-03T06:03:21;99407.63;;;-0.80;100.00
21240;BME280;10778;48.962;9.018;2023-03-03T06:05:47;99414.31;;;-0.74;100.00
21240;BME280;10778;48.962;9.018;2023-03-03T06:08:13;99410.56;;;-0.67;100.00
21240;BME280;10778;48.962;9.018;2023-03-03T06:10:39;99411.81;;;-0.77;100.00
21240;BME280;10778;48.962;9.018;2023-03-03T06:13:08;99413.41;;;-0.73;100.00
21240;BME280;10778;48.962;9.018;2023-03-03T06:15:34;99409.00;;;-0.71;100.00
21240;BME280;10778;48.962;9.018;2023-03-03T06:18:00;99421.94;;;-0.71;100.00
21240;BME280;10778;48.962;9.018;2023-03-03T06:20:26;99417.09;;;-0.80;100.00
21240;BME280;10778;48.962;9.018;2023-03-03T06:22:52;99424.03;;;-0.81;100.00
21240;BME280;10778;48.962;9.018;2023-03-03T06:25:18;99426.53;;;-0.79;100.00
21240;BME280;10778;48.962;9.018;2023-03-03T06:27:44;99429.25;;;-0.82;100.00
21240;BME280;10778;48.962;9.018;2023-03-03T06:30:11;99427.28;;;-0.76;100.00
21240;BME280;10778;48.962;9.018;2023-03-03T06:32:37;99441.25;;;-0.81;100.00
21240;BME280;10778;48.962;9.018;2023-03-03T06:35:04;99434.19;;;-0.76;100.00
21240;BME280;10778;48.962;9.018;2023-03-03T06:37:30;99437.56;;;-0.74;100.00
21240;BME280;10778;48.962;9.018;2023-03-03T06:39:56;99443.38;;;-0.69;100.00
21240;BME280;10778;48.962;9.018;2023-03-03T06:42:22;99441.94;;;-0.54;100.00
21240;BME280;10778;48.962;9.018;2023-03-03T06:44:49;99443.72;;;-0.54;100.00
21240;BME280;10778;48.962;9.018;2023-03-03T06:47:15;99440.22;;;-0.53;100.00
21240;BME280;10778;48.962;9.018;2023-03-03T06:49:41;99446.66;;;-0.41;100.00
21240;BME280;10778;48.962;9.018;2023-03-03T06:52:22;99441.78;;;-0.49;99.52
21240;BME280;10778;48.962;9.018;2023-03-03T06:54:49;99447.56;;;-0.43;100.00
21240;BME280;10778;48.962;9.018;2023-03-03T06:57:22;99455.34;;;-0.44;100.00
21240;BME280;10778;48.962;9.018;2023-03-03T06:59:52;99456.81;;;-0.37;99.67
21240;BME280;10778;48.962;9.018;2023-03-03T07:02:20;99456.16;;;-0.42;99.66
21240;BME280;10778;48.962;9.018;2023-03-03T07:04:47;99449.53;;;-0.27;100.00
21240;BME280;10778;48.962;9.018;2023-03-03T07:07:19;99450.03;;;-0.17;99.65
21240;BME280;10778;48.962;9.018;2023-03-03T07:09:48;99460.97;;;-0.10;99.77
21240;BME280;10778;48.962;9.018;2023-03-03T07:12:18;99457.34;;;-0.06;99.04
21240;BME280;10778;48.962;9.018;2023-03-03T07:14:47;99460.53;;;0.01;98.98
21240;BME280;10778;48.962;9.018;2023-03-03T07:17:18;99462.03;;;0.06;99.65
21240;BME280;10778;48.962;9.018;2023-03-03T07:19:45;99461.28;;;0.25;98.71
21240;BME280;10778;48.962;9.018;2023-03-03T07:22:24;99460.31;;;0.27;97.77
21240;BME280;10778;48.962;9.018;2023-03-03T07:24:53;99461.06;;;1.11;100.00
21240;BME280;10778;48.962;9.018;2023-03-03T07:27:25;99465.25;;;0.94;96.95
21240;BME280;10778;48.962;9.018;2023-03-03T07:29:53;99461.97;;;0.70;95.24
21240;BME280;10778;48.962;9.018;2023-03-03T07:32:35;99462.13;;;0.67;95.53
21240;BME280;10778;48.962;9.018;2023-03-03T07:35:19;99463.53;;;0.74;95.31
21240;BME280;10778;48.962;9.018;2023-03-03T07:37:49;99473.50;;;1.03;95.63
21240;BME280;10778;48.962;9.018;2023-03-03T07:42:53;99477.25;;;1.16;94.93
21240;BME280;10778;48.962;9.018;2023-03-03T07:45:39;99477.00;;;1.22;93.91
21240;BME280;10778;48.962;9.018;2023-03-03T07:50:44;99487.19;;;1.45;93.78
21240;BME280;10778;48.962;9.018;2023-03-03T07:53:30;99489.28;;;1.75;92.85
21240;BME280;10778;48.962;9.018;2023-03-03T07:56:00;99490.34;;;1.70;91.01
21240;BME280;10778;48.962;9.018;2023-03-03T07:58:46;99490.59;;;2.03;90.27
21240;BME280;10778;48.962;9.018;2023-03-03T08:03:54;99490.66;;;3.23;84.18
21240;BME280;10778;48.962;9.018;2023-03-03T08:06:45;99494.59;;;3.30;83.69
21240;BME280;10778;48.962;9.018;2023-03-03T08:09:25;99488.66;;;3.76;81.51
21240;BME280;10778;48.962;9.018;2023-03-03T08:12:36;99488.41;;;4.27;80.01
21240;BME280;10778;48.962;9.018;2023-03-03T08:15:24;99487.94;;;5.38;73.00
21240;BME280;10778;48.962;9.018;2023-03-03T08:17:52;99493.03;;;6.11;70.94
21240;BME280;10778;48.962;9.018;2023-03-03T08:22:54;99482.78;;;6.74;66.56
21240;BME280;10778;48.962;9.018;2023-03-03T08:25:20;99471.81;;;8.78;60.88
21240;BME280;10778;48.962;9.018;2023-03-03T08:27:46;99477.38;;;9.76;56.41
21240;BME280;10778;48.962;9.018;2023-03-03T08:30:12;99470.38;;;9.98;53.33
21240;BME280;10778;48.962;9.018;2023-03-03T08:32:38;99473.59;;;9.35;54.62
21240;BME280;10778;48.962;9.018;2023-03-03T08:35:04;99470.38;;;9.98;52.90
21240;BME280;10778;48.962;9.018;2023-03-03T08:37:30;99473.75;;;9.33;52.62
21240;BME280;10778;48.962;9.018;2023-03-03T08:39:56;99471.25;;;9.87;50.79
21240;BME280;10778;48.962;9.018;2023-03-03T08:42:22;99460.97;;;10.17;49.87
21240;BME280;10778;48.962;9.018;2023-03-03T08:44:48;99456.59;;;11.73;47.53
21240;BME280;10778;48.962;9.018;2023-03-03T08:47:15;99467.88;;;11.34;47.18
21240;BME280;10778;48.962;9.018;2023-03-03T08:49:41;99468.22;;;9.92;50.67
21240;BME280;10778;48.962;9.018;2023-03-03T08:52:07;99476.13;;;10.24;51.04
21240;BME280;10778;48.962;9.018;2023-03-03T08:54:33;99479.63;;;10.14;50.80
21240;BME280;10778;48.962;9.018;2023-03-03T08:56:59;99473.19;;;10.81;49.49
21240;BME280;10778;48.962;9.018;2023-03-03T08:59:25;99479.81;;;12.18;46.09
21240;BME280;10778;48.962;9.018;2023-03-03T09:01:51;99484.34;;;10.95;48.71
21240;BME280;10778;48.962;9.018;2023-03-03T09:04:17;99478.25;;;11.86;46.95
21240;BME280;10778;48.962;9.018;2023-03-03T09:06:43;99487.19;;;11.54;46.82
21240;BME280;10778;48.962;9.018;2023-03-03T09:09:09;99483.84;;;12.32;45.68
21240;BME280;10778;48.962;9.018;2023-03-03T09:11:35;99483.25;;;12.58;45.73
21240;BME280;10778;48.962;9.018;2023-03-03T09:14:12;99483.44;;;12.27;44.77
21240;BME280;10778;48.962;9.018;2023-03-03T09:16:43;99482.16;;;12.21;45.35
21240;BME280;10778;48.962;9.018;2023-03-03T09:19:28;99491.03;;;12.01;45.93
21240;BME280;10778;48.962;9.018;2023-03-03T09:22:01;99499.56;;;11.63;46.19
21240;BME280;10778;48.962;9.018;2023-03-03T09:24:30;99497.75;;;12.25;45.80
21240;BME280;10778;48.962;9.018;2023-03-03T09:26:57;99500.38;;;11.13;47.34
21240;BME280;10778;48.962;9.018;2023-03-03T09:29:29;99493.78;;;11.79;45.38
21240;BME280;10778;48.962;9.018;2023-03-03T09:32:00;99491.06;;;12.30;44.77
21240;BME280;10778;48.962;9.018;2023-03-03T09:34:39;99487.44;;;12.61;45.43
21240;BME280;10778;48.962;9.018;2023-03-03T09:37:22;99487.72;;;12.28;45.87
21240;BME280;10778;48.962;9.018;2023-03-03T09:39:52;99481.56;;;12.67;43.27
21240;BME280;10778;48.962;9.018;2023-03-03T09:50:32;99498.00;;;12.51;45.71
21240;BME280;10778;48.962;9.018;2023-03-03T09:55:50;99498.63;;;11.84;43.53
21240;BME280;10778;48.962;9.018;2023-03-03T10:04:31;99504.41;;;12.19;43.46
21240;BME280;10778;48.962;9.018;2023-03-03T10:07:21;99501.19;;;12.05;43.46
21240;BME280;10778;48.962;9.018;2023-03-03T10:10:28;99499.69;;;12.42;44.37
21240;BME280;10778;48.962;9.018;2023-03-03T10:19:01;99494.22;;;12.63;44.26
21240;BME280;10778;48.962;9.018;2023-03-03T10:21:34;99497.88;;;12.33;43.78
21240;BME280;10778;48.962;9.018;2023-03-03T10:24:04;99495.47;;;13.17;43.32
21240;BME280;10778;48.962;9.018;2023-03-03T10:29:38;99499.69;;;12.42;43.82
21240;BME280;10778;48.962;9.018;2023-03-03T10:33:00;99494.34;;;11.93;44.98
21240;BME280;10778;48.962;9.018;2023-03-03T10:35:33;99499.53;;;11.44;46.53
21240;BME280;10778;48.962;9.018;2023-03-03T10:41:10;99503.13;;;11.43;46.29
21240;BME280;10778;48.962;9.018;2023-03-03T11:05:20;99514.03;;;8.98;51.56
21240;BME280;10778;48.962;9.018;2023-03-03T11:11:14;99511.19;;;9.13;53.06
21240;BME280;10778;48.962;9.018;2023-03-03T11:13:44;99519.22;;;9.11;51.58
21240;BME280;10778;48.962;9.018;2023-03-03T11:21:56;99517.16;;;8.20;53.59
21240;BME280;10778;48.962;9.018;2023-03-03T11:40:12;99490.66;;;9.29;51.32
21240;BME280;10778;48.962;9.018;2023-03-03T11:45:27;99492.94;;;9.45;51.30
21240;BME280;10778;48.962;9.018;2023-03-03T11:51:07;99477.03;;;10.02;49.64
21240;BME280;10778;48.962;9.018;2023-03-03T11:53:46;99485.97;;;10.11;50.78
21240;BME280;10778;48.962;9.018;2023-03-03T11:56:25;99469.31;;;10.22;50.49
21240;BME280;10778;48.962;9.018;2023-03-03T12:02:14;99476.97;;;9.81;50.66
21240;BME280;10778;48.962;9.018;2023-03-03T12:04:51;99482.56;;;9.88;51.87
21240;BME280;10778;48.962;9.018;2023-03-03T12:07:25;99474.34;;;9.81;51.27
21240;BME280;10778;48.962;9.018;2023-03-03T12:12:42;99470.59;;;10.28;50.83
21240;BME280;10778;48.962;9.018;2023-03-03T12:15:22;99468.84;;;10.49;49.66
21240;BME280;10778;48.962;9.018;2023-03-03T12:26:08;99460.66;;;10.95;49.39
21240;BME280;10778;48.962;9.018;2023-03-03T12:28:40;99452.31;;;10.90;49.77
21240;BME280;10778;48.962;9.018;2023-03-03T12:33:57;99448.38;;;11.05;49.63
21240;BME280;10778;48.962;9.018;2023-03-03T12:42:19;99445.88;;;11.04;49.25
21240;BME280;10778;48.962;9.018;2023-03-03T12:45:06;99444.38;;;10.80;48.87
21240;BME280;10778;48.962;9.018;2023-03-03T12:47:38;99446.00;;;10.50;50.24
21240;BME280;10778;48.962;9.018;2023-03-03T12:58:24;99439.47;;;10.33;49.88
21240;BME280;10778;48.962;9.018;2023-03-03T13:01:31;99439.97;;;10.59;51.16
21240;BME280;10778;48.962;9.018;2023-03-03T13:07:18;99443.28;;;10.40;50.29
21240;BME280;10778;48.962;9.018;2023-03-03T13:10:17;99434.66;;;9.95;52.43
21240;BME280;10778;48.962;9.018;2023-03-03T13:12:52;99443.31;;;9.86;51.63
21240;BME280;10778;48.962;9.018;2023-03-03T13:15:24;99442.09;;;9.90;52.27
21240;BME280;10778;48.962;9.018;2023-03-03T13:20:45;99440.47;;;10.74;51.09
21240;BME280;10778;48.962;9.018;2023-03-03T13:26:00;99434.13;;;10.87;50.66
21240;BME280;10778;48.962;9.018;2023-03-03T13:31:35;99424.59;;;11.36;49.64
21240;BME280;10778;48.962;9.018;2023-03-03T13:34:03;99421.50;;;11.72;48.71
21240;BME280;10778;48.962;9.018;2023-03-03T13:36:34;99421.75;;;12.38;48.46
21240;BME280;10778;48.962;9.018;2023-03-03T13:39:13;99421.16;;;12.64;46.33
21240;BME280;10778;48.962;9.018;2023-03-03T13:44:33;99411.09;;;13.43;45.44
21240;BME280;10778;48.962;9.018;2023-03-03T13:52:08;99402.88;;;12.43;48.08
21240;BME280;10778;48.962;9.018;2023-03-03T13:55:13;99404.84;;;12.31;47.39
21240;BME280;10778;48.962;9.018;2023-03-03T13:58:21;99400.88;;;12.55;47.24
21240;BME280;10778;48.962;9.018;2023-03-03T14:06:54;99397.22;;;12.28;47.99
21240;BME280;10778;48.962;9.018;2023-03-03T14:12:36;99390.09;;;12.38;47.94
21240;BME280;10778;48.962;9.018;2023-03-03T14:15:26;99393.38;;;12.02;47.88
21240;BME280;10778;48.962;9.018;2023-03-03T14:20:55;99391.81;;;12.67;47.57
21240;BME280;10778;48.962;9.018;2023-03-03T14:26:11;99382.16;;;12.86;46.83
21240;BME280;10778;48.962;9.018;2023-03-03T14:28:43;99377.50;;;13.26;45.92
21240;BME280;10778;48.962;9.018;2023-03-03T14:36:51;99377.78;;;12.19;48.29
21240;BME280;10778;48.962;9.018;2023-03-03T14:41:53;99372.38;;;12.68;46.80
21240;BME280;10778;48.962;9.018;2023-03-03T14:49:35;99371.81;;;12.27;46.63
21240;BME280;10778;48.962;9.018;2023-03-03T14:54:44;99370.28;;;12.72;47.19
21240;BME280;10778;48.962;9.018;2023-03-03T14:58:00;99370.84;;;12.18;47.15
21240;BME280;10778;48.962;9.018;2023-03-03T15:07:49;99375.44;;;12.16;47.47
21240;BME280;10778;48.962;9.018;2023-03-03T15:10:42;99372.38;;;11.81;47.72
21240;BME280;10778;48.962;9.018;2023-03-03T15:18:26;99365.16;;;11.93;48.14
21240;BME280;10778;48.962;9.018;2023-03-03T15:21:06;99356.94;;;11.96;48.82
21240;BME280;10778;48.962;9.018;2023-03-03T15:23:55;99356.13;;;11.95;48.67
21240;BME280;10778;48.962;9.018;2023-03-03T15:29:28;99360.31;;;11.78;49.24
21240;BME280;10778;48.962;9.018;2023-03-03T15:31:59;99363.63;;;11.51;49.38
21240;BME280;10778;48.962;9.018;2023-03-03T15:34:36;99363.31;;;11.34;49.31
21240;BME280;10778;48.962;9.018;2023-03-03T15:37:31;99362.81;;;11.41;48.82
21240;BME280;10778;48.962;9.018;2023-03-03T15:43:02;99355.44;;;11.34;50.75
21240;BME280;10778;48.962;9.018;2023-03-03T15:45:33;99357.06;;;11.16;49.47
21240;BME280;10778;48.962;9.018;2023-03-03T15:56:50;99365.84;;;10.33;51.64
21240;BME280;10778;48.962;9.018;2023-03-03T16:02:57;99362.41;;;10.11;52.39
21240;BME280;10778;48.962;9.018;2023-03-03T16:08:16;99373.22;;;9.96;52.69
21240;BME280;10778;48.962;9.018;2023-03-03T16:10:53;99375.81;;;9.75;53.05
21240;BME280;10778;48.962;9.018;2023-03-03T16:16:24;99371.75;;;9.50;53.38
21240;BME280;10778;48.962;9.018;2023-03-03T16:25:06;99373.97;;;9.22;54.72
21240;BME280;10778;48.962;9.018;2023-03-03T16:27:35;99384.03;;;9.05;55.95
21240;BME280;10778;48.962;9.018;2023-03-03T16:30:32;99389.88;;;8.98;55.60
21240;BME280;10778;48.962;9.018;2023-03-03T16:33:36;99386.88;;;8.79;56.82
21240;BME280;10778;48.962;9.018;2023-03-03T16:38:52;99396.78;;;8.64;57.37
21240;BME280;10778;48.962;9.018;2023-03-03T16:41:43;99405.16;;;8.58;58.41
21240;BME280;10778;48.962;9.018;2023-03-03T16:44:37;99413.06;;;8.45;58.36
21240;BME280;10778;48.962;9.018;2023-03-03T16:52:24;99422.31;;;8.15;58.55
21240;BME280;10778;48.962;9.018;2023-03-03T16:54:58;99425.22;;;7.99;59.48
21240;BME280;10778;48.962;9.018;2023-03-03T17:00:22;99431.88;;;7.67;62.27
21240;BME280;10778;48.962;9.018;2023-03-03T17:11:08;99447.34;;;6.96;65.65
21240;BME280;10778;48.962;9.018;2023-03-03T17:19:18;99448.03;;;6.33;67.46
21240;BME280;10778;48.962;9.018;2023-03-03T17:21:57;99456.75;;;6.06;69.06
21240;BME280;10778;48.962;9.018;2023-03-03T17:30:11;99473.09;;;5.68;70.44
21240;BME280;10778;48.962;9.018;2023-03-03T17:32:55;99477.31;;;5.56;71.09
21240;BME280;10778;48.962;9.018;2023-03-03T17:36:02;99482.25;;;5.46;70.99
21240;BME280;10778;48.962;9.018;2023-03-03T17:46:58;99495.06;;;5.22;72.61
21240;BME280;10778;48.962;9.018;2023-03-03T17:49:28;99492.28;;;5.25;72.54